Terminal Aerodrome Forecast
Issued by NWS Duluth, MN

Home | Current Version | Previous Version | Graphics & Text | Print | Product List | Glossary On
Versions: 1 2 3 4 5 6 7 8 9 10 11 12 13 14 15 16
054
FTUS43 KDLH 242337
TAFINL
TAF
KINL 242337Z 2500/2524 27008KT P6SM BKN060
     FM250700 23005KT P6SM SCT040 BKN070
     FM251300 26006KT P6SM SCT035 BKN070
     FM251500 28012G18KT P6SM VCSH SCT015 OVC023
     FM252100 30011G18KT P6SM OVC030=

USA.gov is the U.S. government's official web portal to all federal, state and local government web resources and services.